H.m. Hidalgo — WDB3867 — position and weather

sailwx.info

Track history (hours):
 
Tides and Currents Weather Stations Pressure Air Temp Water Temp Dewpoint Dewpoint Depression Visibility Wind Speed Wind Dir Waves Ship Positions

H.m. Hidalgo

Owner: PACIFIC TUGBOAT SERVICE INC, SAN DIEGO, CA. More information available from US FCC via Universal Licensing System and Coast Guard Vessel Documentation Center.

Last reported at 2017-Oct-08 20:45 UTC. Time now 2017-Oct-18 16:27 UTC.
Position N 33°46' W 118°13'.
Warning: this ship's position is 9 days out of date.

Length 25 m; draft 4 m.

Type: Towing. MMSI: 366892180.

Date/timePositionNaut miles runAvg speedWind from/ knotsBaromVisibWave heightAir tempDewpointWater temp
2017-Oct-08 20:45N 33°46' W 118°13'0 0.9
2017-Oct-08 20:30N 33°46' W 118°13'3 5.2
2017-Oct-08 19:58N 33°45' W 118°10'0 0.0
2017-Oct-08 19:27N 33°45' W 118°10'0 0.4
2017-Oct-08 18:59N 33°44' W 118°10'2 4.1
2017-Oct-08 18:28N 33°42' W 118°11'3 7.0
2017-Oct-08 17:59N 33°39' W 118°10'3 7.0
2017-Oct-08 17:30N 33°36' W 118°09'4 7.0
2017-Oct-08 16:56N 33°32' W 118°08'3 7.0
2017-Oct-08 16:30N 33°29' W 118°07'8 7.0
2017-Oct-08 15:24N 33°22' W 118°03'4 7.0
2017-Oct-08 14:53N 33°18' W 118°02'3 7.1
2017-Oct-08 14:26N 33°15' W 118°02'3 7.1
2017-Oct-08 14:00N 33°12' W 118°01'4 7.1
2017-Oct-08 13:26N 33°08' W 118°00'5 6.9
2017-Oct-08 12:39N 33°03' W 117°59'3 6.9
2017-Oct-08 12:16N 33°00' W 117°59'2 7.1
2017-Oct-08 12:00N 32°58' W 117°59'4 7.1
2017-Oct-08 11:30N 32°55' W 117°58'4 7.4
2017-Oct-08 11:00N 32°51' W 117°57'4 7.2
2017-Oct-08 10:30N 32°48' W 117°57'4 7.1
2017-Oct-08 10:00N 32°44' W 117°56'4 7.1
2017-Oct-08 09:30N 32°41' W 117°55'4 7.2
2017-Oct-08 09:00N 32°37' W 117°55'4 7.1
2017-Oct-08 08:30N 32°34' W 117°54'4 6.9
2017-Oct-08 08:00N 32°30' W 117°53'6 7.0
2017-Oct-08 07:05N 32°24' W 117°52'2 6.9
2017-Oct-08 06:46N 32°22' W 117°52'2 6.9
2017-Oct-08 06:30N 32°20' W 117°51'3 6.6
2017-Oct-08 05:58N 32°16' W 117°51'4 6.6
2017-Oct-08 05:26N 32°13' W 117°50'3 6.7
2017-Oct-08 05:00N 32°10' W 117°49'3 7.0
2017-Oct-08 04:30N 32°07' W 117°49'4 7.1
2017-Oct-08 04:00N 32°03' W 117°48'6 6.7
2017-Oct-08 03:03N 31°57' W 117°47'0 6.2
2017-Oct-08 02:59N 31°56' W 117°47'4 6.3
2017-Oct-08 02:24N 31°53' W 117°46'4 6.2
2017-Oct-08 01:44N 31°49' W 117°45'3 5.3
2017-Oct-08 01:05N 31°45' W 117°45'0 4.6
2017-Oct-08 01:00N 31°45' W 117°45'2 3.4
2017-Oct-08 00:29N 31°46' W 117°47'3 3.3
2017-Oct-07 23:41N 31°47' W 117°50'1 3.4
2017-Oct-07 23:30N 31°47' W 117°51'2 3.5
2017-Oct-07 23:00N 31°47' W 117°53'2 3.4
2017-Oct-07 22:30N 31°48' W 117°55'2 3.3
2017-Oct-07 22:00N 31°48' W 117°56'2 3.1
2017-Oct-07 21:30N 31°49' W 117°58'2 3.1
2017-Oct-07 21:00N 31°49' W 117°60'2 3.1
2017-Oct-07 20:30N 31°50' W 118°02'2 3.1
2017-Oct-07 20:00N 31°50' W 118°03'2 3.4
2017-Oct-07 19:30N 31°51' W 118°04'3 6.2
2017-Oct-07 18:58N 31°55' W 118°04'2 4.0
2017-Oct-07 18:30N 31°56' W 118°05'2 3.1
2017-Oct-07 18:00N 31°57' W 118°07'1 2.9
2017-Oct-07 17:30N 31°58' W 118°08'2 3.4
2017-Oct-07 17:00N 31°59' W 118°10'1 1.4
2017-Oct-07 16:17N 31°58' W 118°09'1 2.9
2017-Oct-07 15:59N 31°58' W 118°08'2 2.8
2017-Oct-07 15:24N 31°57' W 118°07'1 2.6
2017-Oct-07 14:55N 31°56' W 118°06'5 2.3
2017-Oct-07 12:52N 31°52' W 118°02'1 3.3
2017-Oct-07 12:30N 31°53' W 118°03'2 3.8
2017-Oct-07 12:00N 31°54' W 118°05'2 3.7
2017-Oct-07 11:30N 31°56' W 118°06'2 3.7
2017-Oct-07 11:00N 31°57' W 118°08'2 3.7
2017-Oct-07 10:30N 31°58' W 118°10'1 1.8
2017-Oct-07 09:54N 31°59' W 118°10'1 2.7
2017-Oct-07 09:30N 31°59' W 118°09'1 2.7
2017-Oct-07 09:00N 31°58' W 118°08'1 2.8
2017-Oct-07 08:30N 31°57' W 118°06'1 3.0
2017-Oct-07 08:00N 31°56' W 118°05'1 3.0
2017-Oct-07 07:30N 31°55' W 118°04'2 3.0
2017-Oct-07 06:44N 31°54' W 118°01'0 1.7
2017-Oct-07 06:30N 31°54' W 118°01'2 3.6
2017-Oct-07 06:00N 31°55' W 118°03'2 3.6
2017-Oct-07 05:30N 31°56' W 118°05'2 3.7
2017-Oct-07 05:00N 31°57' W 118°07'2 3.4
2017-Oct-07 04:30N 31°58' W 118°09'2 3.4
2017-Oct-07 04:00N 31°58' W 118°11'4 2.5
2017-Oct-07 02:21N 31°56' W 118°07'3 3.0
2017-Oct-07 01:30N 31°54' W 118°04'5 2.7
2017-Oct-06 23:49N 31°52' W 118°00'1 3.0
2017-Oct-06 23:30N 31°52' W 118°01'1 2.9
2017-Oct-06 23:00N 31°53' W 118°02'2 3.0
2017-Oct-06 22:30N 31°54' W 118°04'3 1.4
2017-Oct-06 20:18N 31°53' W 118°00'1 3.3
2017-Oct-06 20:00N 31°54' W 118°01'1 3.0
2017-Oct-06 19:30N 31°55' W 118°03'2 3.0
2017-Oct-06 19:00N 31°55' W 118°04'1 3.0
2017-Oct-06 18:30N 31°56' W 118°06'1 1.1
2017-Oct-06 18:00N 31°56' W 118°05'1 2.0
2017-Oct-06 17:30N 31°55' W 118°04'1 1.9
2017-Oct-06 17:00N 31°55' W 118°03'2 3.3
2017-Oct-06 16:30N 31°56' W 118°05'2 3.4
2017-Oct-06 16:00N 31°56' W 118°07'1 2.2
2017-Oct-06 15:30N 31°56' W 118°06'1 2.2
2017-Oct-06 15:00N 31°56' W 118°04'2 3.4
2017-Oct-06 14:30N 31°58' W 118°04'3 6.0
2017-Oct-06 14:00N 32°01' W 118°04'3 6.5
2017-Oct-06 13:30N 32°04' W 118°05'3 6.5
2017-Oct-06 13:00N 32°07' W 118°05'3 6.8
2017-Oct-06 12:30N 32°11' W 118°04'4 6.9
2017-Oct-06 12:00N 32°14' W 118°04'3 6.9
2017-Oct-06 11:30N 32°17' W 118°04'3 6.9
2017-Oct-06 11:00N 32°21' W 118°03'3 6.8
2017-Oct-06 10:30N 32°24' W 118°03'3 6.4
2017-Oct-06 10:00N 32°27' W 118°04'3 6.6
2017-Oct-06 09:30N 32°31' W 118°04'3 6.8
2017-Oct-06 09:00N 32°34' W 118°04'3 6.8
2017-Oct-06 08:30N 32°37' W 118°04'3 6.6
2017-Oct-06 08:00N 32°41' W 118°03'3 6.4
2017-Oct-06 07:30N 32°44' W 118°03'3 6.5
2017-Oct-06 07:00N 32°47' W 118°03'3 6.6
2017-Oct-06 06:30N 32°51' W 118°02'3 6.8
2017-Oct-06 06:00N 32°54' W 118°02'3 6.9
2017-Oct-06 05:30N 32°57' W 118°01'3 6.8
2017-Oct-06 05:00N 33°01' W 118°01'3 6.7
2017-Oct-06 04:30N 33°04' W 118°01'3 6.7
2017-Oct-06 04:00N 33°07' W 118°00'3 6.9
2017-Oct-06 03:30N 33°11' W 118°00'4 6.9
2017-Oct-06 03:00N 33°14' W 117°60'3 6.8
2017-Oct-06 02:30N 33°18' W 117°60'4 6.7
2017-Oct-06 01:58N 33°21' W 118°00'3 7.0
2017-Oct-06 01:30N 33°24' W 118°01'3 6.9
2017-Oct-06 01:00N 33°28' W 118°03'4 7.0
2017-Oct-06 00:30N 33°31' W 118°04'3 6.9
2017-Oct-06 00:00N 33°34' W 118°06'3 6.8
2017-Oct-05 23:30N 33°37' W 118°08'3 6.6
2017-Oct-05 23:00N 33°40' W 118°10'3 6.1
2017-Oct-05 22:30N 33°43' W 118°11'3 5.0
2017-Oct-05 22:00N 33°45' W 118°13'1 3.0
2017-Oct-05 21:30N 33°46' W 118°13'0 0.3
2017-Oct-05 21:00N 33°46' W 118°13'0 0.0
2017-Oct-05 20:30N 33°46' W 118°13'0 0.0
2017-Oct-05 20:00N 33°46' W 118°13'0 0.0
2017-Oct-05 19:30N 33°46' W 118°13'0 0.0
2017-Oct-05 19:00N 33°46' W 118°13'0 0.0
2017-Oct-05 18:30N 33°46' W 118°13'0 0.0
2017-Oct-05 18:00N 33°46' W 118°13'0 0.0
2017-Oct-05 17:30N 33°46' W 118°13'0 0.0
2017-Oct-05 17:00N 33°46' W 118°13'0 0.0
2017-Oct-05 15:29N 33°46' W 118°13'0 0.0
2017-Oct-05 14:57N 33°46' W 118°13'0 0.2
2017-Oct-05 14:29N 33°46' W 118°13'0 0.6
2017-Oct-05 13:57N 33°46' W 118°13'1 1.4
2017-Oct-05 13:30N 33°45' W 118°13'3 6.1
2017-Oct-05 12:57N 33°43' W 118°11'4 9.9
2017-Oct-05 12:30N 33°39' W 118°08'510.1
2017-Oct-05 12:00N 33°35' W 118°04'510.0
2017-Oct-05 11:30N 33°31' W 118°01'510.1
2017-Oct-05 11:00N 33°27' W 117°57'510.1
2017-Oct-05 10:30N 33°23' W 117°53'510.0
2017-Oct-05 10:00N 33°19' W 117°50'510.1
2017-Oct-05 09:30N 33°15' W 117°47'510.0
2017-Oct-05 09:00N 33°10' W 117°43'5 9.9
2017-Oct-05 08:30N 33°07' W 117°40'5 9.7
2017-Oct-05 08:00N 33°03' W 117°37'5 9.5
2017-Oct-05 07:30N 32°59' W 117°33'5 9.7
2017-Oct-05 07:00N 32°55' W 117°30'5 9.7
2017-Oct-05 06:30N 32°51' W 117°27'5 9.8
2017-Oct-05 06:00N 32°47' W 117°23'5 9.6
2017-Oct-05 05:30N 32°43' W 117°20'7 9.8
2017-Oct-05 04:46N 32°37' W 117°15'2 9.1
2017-Oct-05 04:30N 32°40' W 117°14'5 0.3
2017-Oct-04 13:49N 32°41' W 117°08'  
Track history (hours):
 
Tides and Currents Weather Stations Pressure Air Temp Water Temp Dewpoint Dewpoint Depression Visibility Wind Speed Wind Dir Waves Ship Positions

H.m. Hidalgo

Owner: PACIFIC TUGBOAT SERVICE INC, SAN DIEGO, CA. More information available from US FCC via Universal Licensing System and Coast Guard Vessel Documentation Center.

Last reported at 2017-Oct-08 20:45 UTC. Time now 2017-Oct-18 16:27 UTC.
Position N 33°46' W 118°13'.
Warning: this ship's position is 9 days out of date.

Length 25 m; draft 4 m.

Type: Towing. MMSI: 366892180.

Date/timePositionNaut miles runAvg speedWind from/ knotsBaromVisibWave heightAir tempDewpointWater temp
2017-Oct-08 20:45N 33°46' W 118°13'0 0.9
2017-Oct-08 20:30N 33°46' W 118°13'3 5.2
2017-Oct-08 19:58N 33°45' W 118°10'0 0.0
2017-Oct-08 19:27N 33°45' W 118°10'0 0.4
2017-Oct-08 18:59N 33°44' W 118°10'2 4.1
2017-Oct-08 18:28N 33°42' W 118°11'3 7.0
2017-Oct-08 17:59N 33°39' W 118°10'3 7.0
2017-Oct-08 17:30N 33°36' W 118°09'4 7.0
2017-Oct-08 16:56N 33°32' W 118°08'3 7.0
2017-Oct-08 16:30N 33°29' W 118°07'8 7.0
2017-Oct-08 15:24N 33°22' W 118°03'4 7.0
2017-Oct-08 14:53N 33°18' W 118°02'3 7.1
2017-Oct-08 14:26N 33°15' W 118°02'3 7.1
2017-Oct-08 14:00N 33°12' W 118°01'4 7.1
2017-Oct-08 13:26N 33°08' W 118°00'5 6.9
2017-Oct-08 12:39N 33°03' W 117°59'3 6.9
2017-Oct-08 12:16N 33°00' W 117°59'2 7.1
2017-Oct-08 12:00N 32°58' W 117°59'4 7.1
2017-Oct-08 11:30N 32°55' W 117°58'4 7.4
2017-Oct-08 11:00N 32°51' W 117°57'4 7.2
2017-Oct-08 10:30N 32°48' W 117°57'4 7.1
2017-Oct-08 10:00N 32°44' W 117°56'4 7.1
2017-Oct-08 09:30N 32°41' W 117°55'4 7.2
2017-Oct-08 09:00N 32°37' W 117°55'4 7.1
2017-Oct-08 08:30N 32°34' W 117°54'4 6.9
2017-Oct-08 08:00N 32°30' W 117°53'6 7.0
2017-Oct-08 07:05N 32°24' W 117°52'2 6.9
2017-Oct-08 06:46N 32°22' W 117°52'2 6.9
2017-Oct-08 06:30N 32°20' W 117°51'3 6.6
2017-Oct-08 05:58N 32°16' W 117°51'4 6.6
2017-Oct-08 05:26N 32°13' W 117°50'3 6.7
2017-Oct-08 05:00N 32°10' W 117°49'3 7.0
2017-Oct-08 04:30N 32°07' W 117°49'4 7.1
2017-Oct-08 04:00N 32°03' W 117°48'6 6.7
2017-Oct-08 03:03N 31°57' W 117°47'0 6.2
2017-Oct-08 02:59N 31°56' W 117°47'4 6.3
2017-Oct-08 02:24N 31°53' W 117°46'4 6.2
2017-Oct-08 01:44N 31°49' W 117°45'3 5.3
2017-Oct-08 01:05N 31°45' W 117°45'0 4.6
2017-Oct-08 01:00N 31°45' W 117°45'2 3.4
2017-Oct-08 00:29N 31°46' W 117°47'3 3.3
2017-Oct-07 23:41N 31°47' W 117°50'1 3.4
2017-Oct-07 23:30N 31°47' W 117°51'2 3.5
2017-Oct-07 23:00N 31°47' W 117°53'2 3.4
2017-Oct-07 22:30N 31°48' W 117°55'2 3.3
2017-Oct-07 22:00N 31°48' W 117°56'2 3.1
2017-Oct-07 21:30N 31°49' W 117°58'2 3.1
2017-Oct-07 21:00N 31°49' W 117°60'2 3.1
2017-Oct-07 20:30N 31°50' W 118°02'2 3.1
2017-Oct-07 20:00N 31°50' W 118°03'2 3.4
2017-Oct-07 19:30N 31°51' W 118°04'3 6.2
2017-Oct-07 18:58N 31°55' W 118°04'2 4.0
2017-Oct-07 18:30N 31°56' W 118°05'2 3.1
2017-Oct-07 18:00N 31°57' W 118°07'1 2.9
2017-Oct-07 17:30N 31°58' W 118°08'2 3.4
2017-Oct-07 17:00N 31°59' W 118°10'1 1.4
2017-Oct-07 16:17N 31°58' W 118°09'1 2.9
2017-Oct-07 15:59N 31°58' W 118°08'2 2.8
2017-Oct-07 15:24N 31°57' W 118°07'1 2.6
2017-Oct-07 14:55N 31°56' W 118°06'5 2.3
2017-Oct-07 12:52N 31°52' W 118°02'1 3.3
2017-Oct-07 12:30N 31°53' W 118°03'2 3.8
2017-Oct-07 12:00N 31°54' W 118°05'2 3.7
2017-Oct-07 11:30N 31°56' W 118°06'2 3.7
2017-Oct-07 11:00N 31°57' W 118°08'2 3.7
2017-Oct-07 10:30N 31°58' W 118°10'1 1.8
2017-Oct-07 09:54N 31°59' W 118°10'1 2.7
2017-Oct-07 09:30N 31°59' W 118°09'1 2.7
2017-Oct-07 09:00N 31°58' W 118°08'1 2.8
2017-Oct-07 08:30N 31°57' W 118°06'1 3.0
2017-Oct-07 08:00N 31°56' W 118°05'1 3.0
2017-Oct-07 07:30N 31°55' W 118°04'2 3.0
2017-Oct-07 06:44N 31°54' W 118°01'0 1.7
2017-Oct-07 06:30N 31°54' W 118°01'2 3.6
2017-Oct-07 06:00N 31°55' W 118°03'2 3.6
2017-Oct-07 05:30N 31°56' W 118°05'2 3.7
2017-Oct-07 05:00N 31°57' W 118°07'2 3.4
2017-Oct-07 04:30N 31°58' W 118°09'2 3.4
2017-Oct-07 04:00N 31°58' W 118°11'4 2.5
2017-Oct-07 02:21N 31°56' W 118°07'3 3.0
2017-Oct-07 01:30N 31°54' W 118°04'5 2.7
2017-Oct-06 23:49N 31°52' W 118°00'1 3.0
2017-Oct-06 23:30N 31°52' W 118°01'1 2.9
2017-Oct-06 23:00N 31°53' W 118°02'2 3.0
2017-Oct-06 22:30N 31°54' W 118°04'3 1.4
2017-Oct-06 20:18N 31°53' W 118°00'1 3.3
2017-Oct-06 20:00N 31°54' W 118°01'1 3.0
2017-Oct-06 19:30N 31°55' W 118°03'2 3.0
2017-Oct-06 19:00N 31°55' W 118°04'1 3.0
2017-Oct-06 18:30N 31°56' W 118°06'1 1.1
2017-Oct-06 18:00N 31°56' W 118°05'1 2.0
2017-Oct-06 17:30N 31°55' W 118°04'1 1.9
2017-Oct-06 17:00N 31°55' W 118°03'2 3.3
2017-Oct-06 16:30N 31°56' W 118°05'2 3.4
2017-Oct-06 16:00N 31°56' W 118°07'1 2.2
2017-Oct-06 15:30N 31°56' W 118°06'1 2.2
2017-Oct-06 15:00N 31°56' W 118°04'2 3.4
2017-Oct-06 14:30N 31°58' W 118°04'3 6.0
2017-Oct-06 14:00N 32°01' W 118°04'3 6.5
2017-Oct-06 13:30N 32°04' W 118°05'3 6.5
2017-Oct-06 13:00N 32°07' W 118°05'3 6.8
2017-Oct-06 12:30N 32°11' W 118°04'4 6.9
2017-Oct-06 12:00N 32°14' W 118°04'3 6.9
2017-Oct-06 11:30N 32°17' W 118°04'3 6.9
2017-Oct-06 11:00N 32°21' W 118°03'3 6.8
2017-Oct-06 10:30N 32°24' W 118°03'3 6.4
2017-Oct-06 10:00N 32°27' W 118°04'3 6.6
2017-Oct-06 09:30N 32°31' W 118°04'3 6.8
2017-Oct-06 09:00N 32°34' W 118°04'3 6.8
2017-Oct-06 08:30N 32°37' W 118°04'3 6.6
2017-Oct-06 08:00N 32°41' W 118°03'3 6.4
2017-Oct-06 07:30N 32°44' W 118°03'3 6.5
2017-Oct-06 07:00N 32°47' W 118°03'3 6.6
2017-Oct-06 06:30N 32°51' W 118°02'3 6.8
2017-Oct-06 06:00N 32°54' W 118°02'3 6.9
2017-Oct-06 05:30N 32°57' W 118°01'3 6.8
2017-Oct-06 05:00N 33°01' W 118°01'3 6.7
2017-Oct-06 04:30N 33°04' W 118°01'3 6.7
2017-Oct-06 04:00N 33°07' W 118°00'3 6.9
2017-Oct-06 03:30N 33°11' W 118°00'4 6.9
2017-Oct-06 03:00N 33°14' W 117°60'3 6.8
2017-Oct-06 02:30N 33°18' W 117°60'4 6.7
2017-Oct-06 01:58N 33°21' W 118°00'3 7.0
2017-Oct-06 01:30N 33°24' W 118°01'3 6.9
2017-Oct-06 01:00N 33°28' W 118°03'4 7.0
2017-Oct-06 00:30N 33°31' W 118°04'3 6.9
2017-Oct-06 00:00N 33°34' W 118°06'3 6.8
2017-Oct-05 23:30N 33°37' W 118°08'3 6.6
2017-Oct-05 23:00N 33°40' W 118°10'3 6.1
2017-Oct-05 22:30N 33°43' W 118°11'3 5.0
2017-Oct-05 22:00N 33°45' W 118°13'1 3.0
2017-Oct-05 21:30N 33°46' W 118°13'0 0.3
2017-Oct-05 21:00N 33°46' W 118°13'0 0.0
2017-Oct-05 20:30N 33°46' W 118°13'0 0.0
2017-Oct-05 20:00N 33°46' W 118°13'0 0.0
2017-Oct-05 19:30N 33°46' W 118°13'0 0.0
2017-Oct-05 19:00N 33°46' W 118°13'0 0.0
2017-Oct-05 18:30N 33°46' W 118°13'0 0.0
2017-Oct-05 18:00N 33°46' W 118°13'0 0.0
2017-Oct-05 17:30N 33°46' W 118°13'0 0.0
2017-Oct-05 17:00N 33°46' W 118°13'0 0.0
2017-Oct-05 15:29N 33°46' W 118°13'0 0.0
2017-Oct-05 14:57N 33°46' W 118°13'0 0.2
2017-Oct-05 14:29N 33°46' W 118°13'0 0.6
2017-Oct-05 13:57N 33°46' W 118°13'1 1.4
2017-Oct-05 13:30N 33°45' W 118°13'3 6.1
2017-Oct-05 12:57N 33°43' W 118°11'4 9.9
2017-Oct-05 12:30N 33°39' W 118°08'510.1
2017-Oct-05 12:00N 33°35' W 118°04'510.0
2017-Oct-05 11:30N 33°31' W 118°01'510.1
2017-Oct-05 11:00N 33°27' W 117°57'510.1
2017-Oct-05 10:30N 33°23' W 117°53'510.0
2017-Oct-05 10:00N 33°19' W 117°50'510.1
2017-Oct-05 09:30N 33°15' W 117°47'510.0
2017-Oct-05 09:00N 33°10' W 117°43'5 9.9
2017-Oct-05 08:30N 33°07' W 117°40'5 9.7
2017-Oct-05 08:00N 33°03' W 117°37'5 9.5
2017-Oct-05 07:30N 32°59' W 117°33'5 9.7
2017-Oct-05 07:00N 32°55' W 117°30'5 9.7
2017-Oct-05 06:30N 32°51' W 117°27'5 9.8
2017-Oct-05 06:00N 32°47' W 117°23'5 9.6
2017-Oct-05 05:30N 32°43' W 117°20'7 9.8
2017-Oct-05 04:46N 32°37' W 117°15'2 9.1
2017-Oct-05 04:30N 32°40' W 117°14'5 0.3
2017-Oct-04 13:49N 32°41' W 117°08'  

Dump ship's entire track history